GIG weather

Rio Galeão – Tom Jobim International Airport
Rio De Janeiro, Rio de Janeiro, Brazil

Public forecast

Using degrees Celsius for public forecast. Weather courtesy of forecast.io.

Current aviation weather report (METAR) for Rio Galeão – Tom Jobim International Airport

Retrieved 2020/02/21 14:00 UTC (22 minutes ago):

SBGL 211400Z 14005KT 9999 SCT030 BKN100 30/24 Q1010

Aviation forecast (TAF) for Rio Galeão – Tom Jobim International Airport

Retrieved 2020/02/21 12:00 UTC (2 hours ago):

TAF SBGL 210927Z 2112/2218 22005KT 9999 FEW030 TX32/2115Z TN23/2208Z BECMG 2114/2116 23015KT SCT025 BKN040 BECMG 2116/2118 4000 TSRA BKN015 FEW025CB BECMG 2122/2124 28005KT RA BKN010 BKN020 BECMG 2205/2207 7000 NSW SCT008 BKN015 BECMG 2211/2213 SCT017 PROB30 2215/2218 4000 RA BKN013 BKN025 RMK PHQ